createdAt,value
2019-03-25T00:00:38.857Z,68.74
2019-03-25T00:01:39.357Z,68.74
2019-03-25T00:02:38.881Z,68.64
2019-03-25T00:03:38.903Z,68.68
2019-03-25T00:04:38.941Z,68.84
2019-03-25T00:06:39.054Z,69.02
2019-03-25T00:07:39.023Z,69.02
2019-03-25T00:08:39.411Z,68.93
2019-03-25T00:09:39.141Z,68.74
2019-03-25T00:12:39.181Z,68.64
2019-03-25T00:13:39.223Z,69.22
2019-03-25T00:14:39.250Z,69.41
2019-03-25T00:16:39.660Z,69.22
2019-03-25T00:17:39.394Z,69.31
2019-03-25T00:18:39.430Z,69.12
2019-03-25T00:19:39.404Z,69.22
2019-03-25T00:20:39.443Z,69.31
2019-03-25T00:21:39.512Z,69.12
2019-03-25T00:22:39.551Z,69.12
2019-03-25T00:23:39.890Z,69.41
2019-03-25T00:24:39.593Z,69.02
2019-03-25T00:25:39.663Z,68.84
2019-03-25T00:26:39.694Z,68.74
2019-03-25T00:27:39.663Z,69.02
2019-03-25T00:28:39.755Z,69.02
2019-03-25T00:29:39.777Z,68.84
2019-03-25T00:30:40.052Z,69.12
2019-03-25T00:31:39.786Z,69.02
2019-03-25T00:32:39.817Z,69.22
2019-03-25T00:33:39.846Z,69.31
2019-03-25T00:34:39.879Z,69.41
2019-03-25T00:35:39.963Z,69.22
2019-03-25T00:36:39.943Z,69.22
2019-03-25T00:37:40.324Z,69.22
2019-03-25T00:38:40.000Z,69.51
2019-03-25T00:39:40.036Z,69.51
2019-03-25T00:40:40.114Z,69.51
2019-03-25T00:41:40.100Z,69.60
2019-03-25T00:42:40.176Z,69.89
2019-03-25T00:43:40.163Z,69.70
2019-03-25T00:44:40.495Z,69.89
2019-03-25T00:45:40.222Z,70.09
2019-03-25T00:47:40.341Z,69.79
2019-03-25T00:48:40.315Z,70.09
2019-03-25T00:49:40.347Z,69.60
2019-03-25T00:50:40.391Z,70.09
2019-03-25T00:51:40.826Z,69.41
2019-03-25T00:53:40.480Z,69.79
2019-03-25T00:54:49.536Z,69.79
2019-03-25T00:55:40.536Z,69.79
2019-03-25T00:56:40.618Z,69.79
2019-03-25T00:57:40.667Z,69.79
2019-03-25T00:58:40.988Z,69.79
2019-03-25T00:59:40.661Z,69.99
2019-03-25T01:00:40.696Z,69.79
2019-03-25T01:01:40.778Z,69.70
2019-03-25T01:02:40.817Z,70.18
2019-03-25T01:03:40.794Z,69.70
2019-03-25T01:04:40.826Z,69.70
2019-03-25T01:05:41.206Z,69.79
2019-03-25T01:06:40.931Z,69.79
2019-03-25T01:07:40.968Z,69.79
2019-03-25T01:08:41.097Z,69.89
2019-03-25T01:09:41.027Z,69.51
2019-03-25T01:10:41.010Z,69.89
2019-03-25T01:11:49.086Z,69.70
2019-03-25T01:12:41.069Z,69.89
2019-03-25T01:13:41.162Z,69.89
2019-03-25T01:14:41.282Z,69.79
2019-03-25T01:15:41.168Z,69.89
2019-03-25T01:16:41.202Z,69.89
2019-03-25T01:17:41.286Z,69.79
2019-03-25T01:18:41.562Z,69.99
2019-03-25T01:19:41.348Z,69.79
2019-03-25T01:20:41.325Z,70.18
2019-03-25T01:21:41.406Z,70.09
2019-03-25T01:22:41.431Z,69.79
2019-03-25T01:23:41.414Z,69.89
2019-03-25T01:24:41.445Z,69.51
2019-03-25T01:25:41.778Z,69.70
2019-03-25T01:26:41.559Z,69.51
2019-03-25T01:27:41.544Z,69.60
2019-03-25T01:29:41.652Z,69.89
2019-03-25T01:30:41.697Z,69.89
2019-03-25T01:31:42.017Z,69.89
2019-03-25T01:32:41.698Z,69.70
2019-03-25T01:33:41.734Z,69.60
2019-03-25T01:34:41.848Z,69.89
2019-03-25T01:35:41.797Z,69.79
2019-03-25T01:36:41.830Z,69.89
2019-03-25T01:37:42.212Z,69.89
2019-03-25T01:38:41.901Z,69.89
2019-03-25T01:39:41.974Z,69.79
2019-03-25T01:40:41.955Z,69.99
2019-03-25T01:41:41.979Z,69.02
2019-03-25T01:42:42.070Z,69.41
2019-03-25T01:43:42.402Z,69.22
2019-03-25T01:44:42.092Z,69.41
2019-03-25T01:45:42.161Z,69.12
2019-03-25T01:46:42.141Z,69.18
2019-03-25T01:47:42.217Z,69.51
2019-03-25T01:48:42.248Z,69.38
2019-03-25T01:49:42.291Z,69.18
2019-03-25T01:50:42.567Z,69.18
2019-03-25T01:51:42.303Z,69.76
2019-03-25T01:52:42.331Z,69.47
2019-03-25T01:53:42.407Z,69.47
2019-03-25T01:54:42.439Z,68.60
2019-03-25T01:55:42.419Z,68.70
2019-03-25T01:56:42.454Z,68.32
2019-03-25T01:57:42.838Z,68.22
2019-03-25T01:58:42.510Z,68.80
2019-03-25T01:59:42.603Z,68.90
2019-03-25T02:00:42.581Z,68.41
2019-03-25T02:01:42.656Z,68.22
2019-03-25T02:02:42.686Z,68.41
2019-03-25T02:03:42.819Z,67.93
2019-03-25T02:04:43.049Z,68.41
2019-03-25T02:05:42.784Z,68.32
2019-03-25T02:06:42.812Z,68.32
2019-03-25T02:07:42.802Z,68.70
2019-03-25T02:08:42.824Z,68.41
2019-03-25T02:09:42.860Z,68.41
2019-03-25T02:11:42.968Z,68.13
2019-03-25T02:12:43.303Z,68.13
2019-03-25T02:13:42.979Z,67.65
2019-03-25T02:14:43.013Z,67.65
2019-03-25T02:15:43.070Z,67.83
2019-03-25T02:16:43.075Z,67.35
2019-03-25T02:17:43.161Z,67.45
2019-03-25T02:18:43.198Z,67.55
2019-03-25T02:19:43.466Z,67.35
2019-03-25T02:20:43.252Z,67.65
2019-03-25T02:21:43.283Z,68.22
2019-03-25T02:22:43.471Z,67.45
2019-03-25T02:23:43.297Z,67.35
2019-03-25T02:24:43.333Z,67.74
2019-03-25T02:25:43.406Z,67.26
2019-03-25T02:26:43.690Z,67.74
2019-03-25T02:27:43.465Z,67.74
2019-03-25T02:28:43.498Z,67.45
2019-03-25T02:29:43.481Z,67.45
2019-03-25T02:30:43.562Z,67.45
2019-03-25T02:31:43.591Z,67.74
2019-03-25T02:32:43.575Z,67.65
2019-03-25T02:33:43.956Z,67.83
2019-03-25T02:34:43.674Z,67.71
2019-03-25T02:35:43.730Z,68.29
2019-03-25T02:36:43.700Z,68.13
2019-03-25T02:37:43.777Z,67.99
2019-03-25T02:38:43.822Z,68.32
2019-03-25T02:39:43.799Z,68.09
2019-03-25T02:40:44.177Z,67.99
2019-03-25T02:41:43.906Z,68.19
2019-03-25T02:42:43.939Z,68.09
2019-03-25T02:43:43.917Z,67.99
2019-03-25T02:44:43.954Z,68.29
2019-03-25T02:45:44.046Z,67.90
2019-03-25T02:46:44.058Z,68.03
2019-03-25T02:47:44.352Z,67.99
2019-03-25T02:48:44.073Z,68.19
2019-03-25T02:49:44.150Z,68.48
2019-03-25T02:50:44.129Z,68.38
2019-03-25T02:51:44.211Z,68.38
2019-03-25T02:52:44.250Z,68.67
2019-03-25T02:53:44.241Z,68.57
2019-03-25T02:54:44.605Z,68.38
2019-03-25T02:55:44.348Z,68.86
2019-03-25T02:56:44.332Z,68.76
2019-03-25T02:57:44.406Z,69.06
2019-03-25T02:58:44.429Z,68.57
2019-03-25T02:59:44.410Z,68.48
2019-03-25T03:00:44.443Z,68.67
2019-03-25T03:01:44.824Z,68.76
2019-03-25T03:02:44.503Z,68.67
2019-03-25T03:03:44.591Z,68.67
2019-03-25T03:04:44.565Z,68.76
2019-03-25T03:05:44.673Z,69.06
2019-03-25T03:06:44.655Z,69.24
2019-03-25T03:07:44.705Z,68.67
2019-03-25T03:08:47.468Z,69.24
2019-03-25T03:09:44.767Z,68.76
2019-03-25T03:10:44.802Z,67.42
2019-03-25T03:11:44.782Z,67.13
2019-03-25T03:12:44.812Z,65.78
2019-03-25T03:13:44.899Z,65.40
2019-03-25T03:14:44.988Z,65.69
2019-03-25T03:15:45.252Z,65.59
2019-03-25T03:16:44.938Z,65.46
2019-03-25T03:17:44.969Z,65.11
2019-03-25T03:18:45.047Z,65.01
2019-03-25T03:19:45.077Z,64.31
2019-03-25T03:20:45.057Z,64.40
2019-03-25T03:21:45.142Z,64.12
2019-03-25T03:22:45.481Z,64.31
2019-03-25T03:23:45.155Z,64.02
2019-03-25T03:24:45.193Z,63.83
2019-03-25T03:25:57.420Z,64.12
2019-03-25T03:26:45.290Z,63.83
2019-03-25T03:27:45.325Z,63.54
2019-03-25T03:28:45.305Z,63.15
2019-03-25T03:29:45.685Z,63.45
2019-03-25T03:30:45.432Z,62.77
2019-03-25T03:31:45.410Z,62.87
2019-03-25T03:33:45.536Z,63.12
2019-03-25T03:34:45.491Z,62.74
2019-03-25T03:35:46.694Z,63.02
2019-03-25T03:36:45.919Z,63.51
2019-03-25T03:37:45.592Z,63.60
2019-03-25T03:38:45.662Z,62.74
2019-03-25T03:39:45.703Z,62.74
2019-03-25T03:40:45.673Z,62.84
2019-03-25T03:41:45.759Z,63.12
2019-03-25T03:42:45.733Z,63.22
2019-03-25T03:43:46.120Z,62.64
2019-03-25T03:44:45.805Z,62.93
2019-03-25T03:45:45.890Z,62.55
2019-03-25T03:46:45.858Z,62.74
2019-03-25T03:47:45.891Z,62.64
2019-03-25T03:48:45.973Z,62.64
2019-03-25T03:49:46.296Z,62.55
2019-03-25T03:50:46.037Z,62.64
2019-03-25T03:51:46.021Z,63.02
2019-03-25T03:52:46.090Z,62.16
2019-03-25T03:53:46.122Z,62.93
2019-03-25T03:54:46.165Z,62.45
2019-03-25T03:55:46.447Z,62.35
2019-03-25T03:56:46.227Z,62.45
2019-03-25T03:57:46.256Z,62.45
2019-03-25T03:58:46.230Z,62.35
2019-03-25T03:59:46.305Z,62.07
2019-03-25T04:00:46.339Z,62.74
2019-03-25T04:01:46.623Z,62.64
2019-03-25T04:02:46.356Z,62.64
2019-03-25T04:03:46.384Z,63.02
2019-03-25T04:04:46.495Z,62.64
2019-03-25T04:05:46.499Z,62.55
2019-03-25T04:06:46.526Z,61.97
2019-03-25T04:08:46.544Z,62.32
2019-03-25T04:09:46.922Z,62.13
2019-03-25T04:12:46.715Z,61.75
2019-03-25T04:13:46.841Z,61.84
2019-03-25T04:14:46.763Z,62.23
2019-03-25T04:15:47.058Z,61.65
2019-03-25T04:16:46.781Z,62.13
2019-03-25T04:17:46.969Z,62.23
2019-03-25T04:18:46.895Z,62.32
2019-03-25T04:19:46.897Z,62.13
2019-03-25T04:20:46.899Z,62.42
2019-03-25T04:21:46.996Z,62.32
2019-03-25T04:23:47.345Z,62.52
2019-03-25T04:24:47.026Z,62.23
2019-03-25T04:25:47.058Z,62.61
2019-03-25T04:26:47.137Z,62.32
2019-03-25T04:27:47.111Z,62.13
2019-03-25T04:28:47.196Z,62.23
2019-03-25T04:29:47.170Z,62.32
2019-03-25T04:30:47.558Z,62.04
2019-03-25T04:31:47.245Z,62.23
2019-03-25T04:32:47.268Z,62.13
2019-03-25T04:33:47.347Z,62.23
2019-03-25T04:34:47.376Z,62.32
2019-03-25T04:35:47.355Z,62.13
2019-03-25T04:36:47.390Z,62.13
2019-03-25T04:37:47.722Z,62.32
2019-03-25T04:38:47.495Z,62.81
2019-03-25T04:39:47.478Z,62.23
2019-03-25T04:40:47.558Z,62.23
2019-03-25T04:41:47.589Z,62.13
2019-03-25T04:42:47.631Z,62.32
2019-03-25T04:43:47.653Z,62.52
2019-03-25T04:44:47.934Z,62.13
2019-03-25T04:45:47.662Z,62.13
2019-03-25T04:46:47.755Z,62.13
2019-03-25T04:49:47.974Z,62.42
2019-03-25T04:50:47.867Z,62.13
2019-03-25T04:51:48.198Z,62.13
2019-03-25T04:52:47.917Z,62.71
2019-03-25T04:53:47.953Z,62.61
2019-03-25T04:54:47.979Z,62.61
2019-03-25T04:55:47.959Z,62.42
2019-03-25T04:56:48.047Z,62.42
2019-03-25T04:57:48.074Z,62.04
2019-03-25T04:58:48.409Z,62.04
2019-03-25T04:59:48.079Z,62.61
2019-03-25T05:00:48.188Z,62.71
2019-03-25T05:01:48.204Z,62.71
2019-03-25T05:02:48.335Z,62.42
2019-03-25T05:03:48.257Z,62.52
2019-03-25T05:04:48.229Z,62.13
2019-03-25T05:05:48.615Z,62.01
2019-03-25T05:06:48.295Z,62.77
2019-03-25T05:07:48.328Z,62.10
2019-03-25T05:08:48.411Z,62.39
2019-03-25T05:09:48.439Z,62.29
2019-03-25T05:10:48.465Z,61.91
2019-03-25T05:11:48.494Z,61.72
2019-03-25T05:12:48.832Z,62.48
2019-03-25T05:13:48.559Z,62.39
2019-03-25T05:14:48.592Z,61.91
2019-03-25T05:15:48.619Z,61.43
2019-03-25T05:16:48.598Z,61.62
2019-03-25T05:17:48.690Z,62.19
2019-03-25T05:18:48.703Z,62.10
2019-03-25T05:19:49.032Z,61.72
2019-03-25T05:20:48.714Z,62.29
2019-03-25T05:21:48.763Z,62.29
2019-03-25T05:22:48.786Z,62.39
2019-03-25T05:23:48.854Z,62.39
2019-03-25T05:24:48.886Z,62.01
2019-03-25T05:25:48.932Z,62.07
2019-03-25T05:26:51.199Z,62.29
2019-03-25T05:27:48.934Z,62.48
2019-03-25T05:28:49.010Z,62.29
2019-03-25T05:29:49.045Z,62.39
2019-03-25T05:30:49.028Z,62.58
2019-03-25T05:31:49.097Z,62.55
2019-03-25T05:32:49.079Z,62.65
2019-03-25T05:33:49.466Z,62.87
2019-03-25T05:34:49.140Z,63.42
2019-03-25T05:35:49.171Z,63.60
2019-03-25T05:36:49.246Z,63.64
2019-03-25T05:37:49.282Z,63.32
2019-03-25T05:38:49.253Z,64.02
2019-03-25T05:39:49.292Z,63.83
2019-03-25T05:40:49.667Z,63.92
2019-03-25T05:41:49.407Z,64.12
2019-03-25T05:42:49.428Z,63.64
2019-03-25T05:43:49.456Z,63.60
2019-03-25T05:44:49.434Z,63.45
2019-03-25T05:45:49.530Z,63.70
2019-03-25T05:46:49.564Z,63.73
2019-03-25T05:47:49.877Z,63.79
2019-03-25T05:48:49.558Z,64.31
2019-03-25T05:49:49.746Z,64.22
2019-03-25T05:50:49.625Z,63.92
2019-03-25T05:51:49.706Z,63.83
2019-03-25T05:52:49.679Z,63.83
2019-03-25T05:53:49.712Z,63.99
2019-03-25T05:54:50.101Z,64.37
2019-03-25T05:55:49.867Z,63.54
2019-03-25T05:56:49.848Z,64.02
2019-03-25T05:57:49.873Z,64.40
2019-03-25T05:58:49.861Z,64.22
2019-03-25T05:59:49.940Z,63.92
2019-03-25T06:00:49.916Z,64.02
2019-03-25T06:01:50.324Z,63.92
2019-03-25T06:02:49.980Z,63.54
2019-03-25T06:03:50.011Z,63.35
2019-03-25T06:04:50.084Z,63.35
2019-03-25T06:05:50.120Z,63.42
2019-03-25T06:06:52.027Z,63.70
2019-03-25T06:07:50.470Z,63.73
2019-03-25T06:08:50.155Z,63.42
2019-03-25T06:09:50.245Z,63.35
2019-03-25T06:10:50.218Z,63.70
2019-03-25T06:11:50.255Z,64.02
2019-03-25T06:12:50.339Z,63.70
2019-03-25T06:13:50.658Z,63.51
2019-03-25T06:14:50.394Z,63.89
2019-03-25T06:15:50.362Z,63.70
2019-03-25T06:16:50.400Z,63.89
2019-03-25T06:17:50.471Z,64.09
2019-03-25T06:18:50.519Z,64.28
2019-03-25T06:19:50.483Z,63.99
2019-03-25T06:20:50.517Z,63.79
2019-03-25T06:21:50.544Z,64.18
2019-03-25T06:22:50.623Z,64.28
2019-03-25T06:23:50.605Z,63.89
2019-03-25T06:24:50.641Z,64.18
2019-03-25T06:25:51.046Z,63.99
2019-03-25T06:26:50.692Z,63.79
2019-03-25T06:27:50.778Z,63.70
2019-03-25T06:28:50.754Z,63.79
2019-03-25T06:29:50.783Z,64.28
2019-03-25T06:30:50.810Z,64.09
2019-03-25T06:31:50.859Z,63.89
2019-03-25T06:32:51.175Z,64.18
2019-03-25T06:33:50.952Z,64.66
2019-03-25T06:34:50.946Z,63.99
2019-03-25T06:35:50.964Z,63.99
2019-03-25T06:36:51.001Z,64.09
2019-03-25T06:37:51.075Z,64.47
2019-03-25T06:38:51.103Z,63.99
2019-03-25T06:39:51.429Z,63.79
2019-03-25T06:40:51.163Z,64.09
2019-03-25T06:41:51.193Z,64.37
2019-03-25T06:42:51.172Z,63.99
2019-03-25T06:43:51.276Z,64.09
2019-03-25T06:44:51.288Z,64.09
2019-03-25T06:45:51.316Z,64.66
2019-03-25T06:46:51.645Z,64.85
2019-03-25T06:47:51.333Z,65.14
2019-03-25T06:48:51.361Z,63.79
2019-03-25T06:49:51.396Z,63.92
2019-03-25T06:50:51.538Z,63.92
2019-03-25T06:51:51.453Z,64.18
2019-03-25T06:52:51.517Z,63.99
2019-03-25T06:53:51.849Z,63.83
2019-03-25T06:54:51.534Z,63.73
2019-03-25T06:55:51.619Z,64.09
2019-03-25T06:56:51.594Z,63.45
2019-03-25T06:57:51.669Z,63.16
2019-03-25T06:58:51.703Z,62.68
2019-03-25T06:59:51.739Z,63.12
2019-03-25T07:00:52.061Z,62.55
2019-03-25T07:01:51.804Z,62.65
2019-03-25T07:02:51.833Z,63.12
2019-03-25T07:03:51.845Z,62.93
2019-03-25T07:04:51.827Z,63.64
2019-03-25T07:05:51.876Z,63.35
2019-03-25T07:06:51.937Z,62.93
2019-03-25T07:07:52.282Z,63.35
2019-03-25T07:08:52.005Z,62.74
2019-03-25T07:09:52.038Z,63.03
2019-03-25T07:10:52.011Z,62.48
2019-03-25T07:11:52.086Z,62.93
2019-03-25T07:12:52.117Z,62.65
2019-03-25T07:13:52.108Z,63.32
2019-03-25T07:14:52.478Z,63.03
2019-03-25T07:16:52.191Z,61.98
2019-03-25T07:17:52.218Z,62.07
2019-03-25T07:18:52.302Z,62.29
2019-03-25T07:20:52.313Z,62.26
2019-03-25T07:21:52.387Z,62.16
2019-03-25T07:22:52.369Z,62.07
2019-03-25T07:23:52.551Z,62.26
2019-03-25T07:24:52.429Z,62.07
2019-03-25T07:25:52.518Z,61.49
2019-03-25T07:26:52.489Z,61.49
2019-03-25T07:27:52.866Z,61.69
2019-03-25T07:28:52.807Z,62.16
2019-03-25T07:29:52.583Z,61.88
2019-03-25T07:30:52.674Z,62.26
2019-03-25T07:31:52.639Z,62.16
2019-03-25T07:32:52.720Z,61.98
2019-03-25T07:33:53.150Z,61.98
2019-03-25T07:34:52.777Z,61.78
2019-03-25T07:35:52.760Z,62.07
2019-03-25T07:36:52.784Z,61.02
2019-03-25T07:37:52.820Z,61.69
2019-03-25T07:38:52.893Z,61.98
2019-03-25T07:39:53.226Z,62.19
2019-03-25T07:40:53.056Z,62.36
2019-03-25T07:41:52.995Z,62.16
2019-03-25T07:42:52.969Z,61.21
2019-03-25T07:43:53.000Z,61.40
2019-03-25T07:44:53.084Z,61.30
2019-03-25T07:45:53.113Z,61.40
2019-03-25T07:46:53.441Z,61.21
2019-03-25T07:47:53.116Z,61.21
2019-03-25T07:48:53.152Z,62.16
2019-03-25T07:49:53.237Z,62.26
2019-03-25T07:50:53.363Z,62.55
2019-03-25T07:51:53.241Z,62.93
2019-03-25T07:52:53.268Z,63.64
2019-03-25T07:53:53.598Z,63.54
2019-03-25T07:54:53.328Z,63.54
2019-03-25T07:55:53.372Z,63.64
2019-03-25T07:56:53.399Z,63.35
2019-03-25T07:57:53.472Z,63.25
2019-03-25T07:58:53.521Z,63.73
2019-03-25T07:59:53.493Z,63.64
2019-03-25T08:00:53.557Z,63.25
2019-03-25T08:01:53.544Z,63.54
2019-03-25T08:02:53.620Z,63.73
2019-03-25T08:04:53.638Z,64.02
2019-03-25T08:05:53.732Z,63.83
2019-03-25T08:06:54.015Z,64.40
2019-03-25T08:07:53.768Z,64.12
2019-03-25T08:09:03.347Z,64.31
2019-03-25T08:09:53.797Z,63.92
2019-03-25T08:10:53.893Z,63.92
2019-03-25T08:11:53.833Z,63.92
2019-03-25T08:12:53.906Z,64.31
2019-03-25T08:13:53.951Z,64.02
2019-03-25T08:14:54.017Z,64.22
2019-03-25T08:15:53.967Z,64.40
2019-03-25T08:16:53.985Z,63.96
2019-03-25T08:17:54.086Z,63.92
2019-03-25T08:18:54.100Z,64.05
2019-03-25T08:19:54.383Z,64.12
2019-03-25T08:20:54.121Z,64.15
2019-03-25T08:21:54.189Z,64.05
2019-03-25T08:22:54.166Z,64.05
2019-03-25T08:23:54.258Z,64.15
2019-03-25T08:24:54.348Z,64.25
2019-03-25T08:25:54.616Z,64.34
2019-03-25T08:26:54.291Z,63.83
2019-03-25T08:27:59.869Z,64.05
2019-03-25T08:28:54.350Z,63.96
2019-03-25T08:29:54.444Z,63.96
2019-03-25T08:30:54.508Z,64.05
2019-03-25T08:31:54.443Z,63.86
2019-03-25T08:32:54.538Z,63.96
2019-03-25T08:33:54.552Z,64.25
2019-03-25T08:34:54.581Z,64.43
2019-03-25T08:35:54.561Z,64.34
2019-03-25T08:36:54.587Z,64.43
2019-03-25T08:37:54.969Z,64.15
2019-03-25T08:38:54.697Z,64.34
2019-03-25T08:39:54.679Z,64.15
2019-03-25T08:40:54.711Z,63.96
2019-03-25T08:41:54.743Z,64.43
2019-03-25T08:42:54.825Z,64.82
2019-03-25T08:43:54.852Z,64.43
2019-03-25T08:44:55.179Z,64.25
2019-03-25T08:45:54.913Z,64.05
2019-03-25T08:46:54.942Z,64.25
2019-03-25T08:48:55.015Z,64.05
2019-03-25T08:50:55.017Z,64.05
2019-03-25T08:51:55.049Z,64.25
2019-03-25T08:54:55.191Z,64.15
2019-03-25T08:55:55.215Z,63.86
2019-03-25T08:56:55.267Z,63.76
2019-03-25T08:58:55.311Z,64.05
2019-03-25T08:59:57.483Z,63.96
2019-03-25T09:00:55.320Z,63.96
2019-03-25T09:01:55.347Z,63.48
2019-03-25T09:02:55.391Z,63.48
2019-03-25T09:03:55.756Z,63.57
2019-03-25T09:04:55.500Z,63.48
2019-03-25T09:05:55.465Z,63.38
2019-03-25T09:06:55.496Z,63.57
2019-03-25T09:07:55.582Z,63.76
2019-03-25T09:08:55.611Z,63.38
2019-03-25T09:09:55.646Z,63.67
2019-03-25T09:10:55.970Z,63.48
2019-03-25T09:11:55.709Z,63.38
2019-03-25T09:12:55.737Z,63.48
2019-03-25T09:13:55.764Z,63.38
2019-03-25T09:14:55.795Z,63.67
2019-03-25T09:15:55.781Z,62.99
2019-03-25T09:16:55.802Z,63.09
2019-03-25T09:17:55.841Z,63.09
2019-03-25T09:18:55.864Z,62.71
2019-03-25T09:19:55.898Z,63.09
2019-03-25T09:20:55.934Z,62.71
2019-03-25T09:21:55.955Z,62.71
2019-03-25T09:22:56.039Z,62.52
2019-03-25T09:23:56.018Z,62.52
2019-03-25T09:24:56.092Z,62.71
2019-03-25T09:25:56.125Z,62.81
2019-03-25T09:26:56.102Z,62.42
2019-03-25T09:27:56.186Z,62.42
2019-03-25T09:28:56.466Z,62.81
2019-03-25T09:29:56.201Z,62.52
2019-03-25T09:30:56.286Z,62.52
2019-03-25T09:31:56.268Z,62.81
2019-03-25T09:32:56.341Z,62.45
2019-03-25T09:33:56.370Z,62.42
2019-03-25T09:34:56.362Z,62.13
2019-03-25T09:35:56.859Z,62.13
2019-03-25T09:36:56.462Z,62.42
2019-03-25T09:37:56.493Z,62.13
2019-03-25T09:38:56.468Z,62.42
2019-03-25T09:39:56.499Z,62.61
2019-03-25T09:40:56.588Z,62.23
2019-03-25T09:41:56.566Z,62.23
2019-03-25T09:42:56.652Z,62.23
2019-03-25T09:43:56.623Z,62.13
2019-03-25T09:44:56.655Z,62.13
2019-03-25T09:45:56.736Z,62.42
2019-03-25T09:46:56.766Z,62.13
2019-03-25T09:47:56.748Z,62.23
2019-03-25T09:48:57.075Z,62.42
2019-03-25T09:49:56.862Z,62.13
2019-03-25T09:50:56.835Z,62.13
2019-03-25T09:51:56.911Z,62.13
2019-03-25T09:52:56.942Z,62.13
2019-03-25T09:53:56.927Z,62.13
2019-03-25T09:54:56.994Z,62.13
2019-03-25T09:55:56.993Z,62.42
2019-03-25T09:56:57.069Z,62.32
2019-03-25T09:57:57.096Z,62.13
2019-03-25T09:58:57.131Z,62.52
2019-03-25T09:59:57.113Z,62.32
2019-03-25T10:00:57.189Z,62.52
2019-03-25T10:01:57.518Z,62.23
2019-03-25T10:03:57.231Z,62.42
2019-03-25T10:04:57.311Z,62.42
2019-03-25T10:05:57.296Z,62.35
2019-03-25T10:06:57.329Z,62.13
2019-03-25T10:07:57.348Z,62.04
2019-03-25T10:08:57.735Z,62.32
2019-03-25T10:09:57.467Z,62.16
2019-03-25T10:10:57.523Z,62.13
2019-03-25T10:11:57.474Z,62.35
2019-03-25T10:12:57.504Z,62.35
2019-03-25T10:13:57.594Z,62.26
2019-03-25T10:14:57.564Z,62.16
2019-03-25T10:15:57.645Z,62.35
2019-03-25T10:16:57.628Z,62.16
2019-03-25T10:17:57.661Z,62.07
2019-03-25T10:18:57.690Z,62.35
2019-03-25T10:19:57.787Z,62.45
2019-03-25T10:20:58.122Z,62.45
2019-03-25T10:21:57.783Z,62.55
2019-03-25T10:22:57.882Z,62.55
2019-03-25T10:23:57.882Z,62.64
2019-03-25T10:24:57.900Z,62.55
2019-03-25T10:25:57.960Z,63.12
2019-03-25T10:26:58.258Z,63.02
2019-03-25T10:27:58.049Z,62.93
2019-03-25T10:28:58.002Z,62.74
2019-03-25T10:29:58.092Z,62.55
2019-03-25T10:30:58.074Z,62.64
2019-03-25T10:31:58.143Z,62.64
2019-03-25T10:32:58.187Z,62.55
2019-03-25T10:33:58.514Z,62.64
2019-03-25T10:34:58.191Z,62.74
2019-03-25T10:35:58.212Z,63.02
2019-03-25T10:36:58.301Z,62.84
2019-03-25T10:37:58.289Z,62.84
2019-03-25T10:38:58.357Z,62.64
2019-03-25T10:39:58.349Z,62.55
2019-03-25T10:40:58.377Z,62.64
2019-03-25T10:41:58.443Z,62.84
2019-03-25T10:42:58.531Z,62.64
2019-03-25T10:43:58.516Z,62.74
2019-03-25T10:44:58.536Z,62.74
2019-03-25T10:45:58.571Z,62.64
2019-03-25T10:46:58.610Z,62.64
2019-03-25T10:47:58.630Z,62.84
2019-03-25T10:48:58.628Z,62.55
2019-03-25T10:49:58.692Z,63.02
2019-03-25T10:50:58.683Z,62.93
2019-03-25T10:51:58.754Z,62.93
2019-03-25T10:52:58.900Z,63.32
2019-03-25T10:53:58.913Z,62.74
2019-03-25T10:55:58.827Z,63.41
2019-03-25T10:56:58.865Z,63.79
2019-03-25T10:57:58.939Z,64.09
2019-03-25T10:58:59.272Z,63.70
2019-03-25T10:59:58.957Z,63.89
2019-03-25T11:00:58.989Z,64.09
2019-03-25T11:01:59.061Z,64.47
2019-03-25T11:02:59.100Z,64.09
2019-03-25T11:03:59.076Z,63.60
2019-03-25T11:04:59.405Z,63.89
2019-03-25T11:05:59.140Z,63.89
2019-03-25T11:06:59.213Z,63.79
2019-03-25T11:07:59.188Z,63.99
2019-03-25T11:08:59.225Z,63.51
2019-03-25T11:09:59.257Z,63.60
2019-03-25T11:10:59.286Z,63.79
2019-03-25T11:11:59.367Z,64.09
2019-03-25T11:12:59.399Z,63.60
2019-03-25T11:13:59.429Z,63.60
2019-03-25T11:14:59.458Z,63.57
2019-03-25T11:15:59.489Z,63.70
2019-03-25T11:16:59.820Z,63.60
2019-03-25T11:17:59.504Z,63.60
2019-03-25T11:18:59.530Z,63.60
2019-03-25T11:19:59.613Z,63.57
2019-03-25T11:20:59.591Z,63.99
2019-03-25T11:21:59.627Z,63.79
2019-03-25T11:22:59.653Z,63.51
2019-03-25T11:23:59.993Z,63.48
2019-03-25T11:24:59.775Z,63.70
2019-03-25T11:25:59.746Z,63.51
2019-03-25T11:26:59.772Z,63.51
2019-03-25T11:27:59.861Z,63.51
2019-03-25T11:29:04.617Z,63.79
2019-03-25T11:29:59.928Z,63.99
2019-03-25T11:31:00.349Z,64.37
2019-03-25T11:31:59.983Z,64.09
2019-03-25T11:32:59.965Z,64.28
2019-03-25T11:33:59.991Z,64.47
2019-03-25T11:35:00.028Z,64.47
2019-03-25T11:36:00.108Z,64.18
2019-03-25T11:37:00.084Z,63.99
2019-03-25T11:38:00.473Z,63.51
2019-03-25T11:39:00.157Z,63.60
2019-03-25T11:40:00.375Z,63.60
2019-03-25T11:41:00.371Z,63.51
2019-03-25T11:42:00.300Z,63.12
2019-03-25T11:43:00.262Z,63.60
2019-03-25T11:44:00.318Z,63.51
2019-03-25T11:45:00.375Z,63.60
2019-03-25T11:46:00.419Z,63.51
2019-03-25T11:47:00.438Z,63.22
2019-03-25T11:48:00.468Z,63.02
2019-03-25T11:49:00.466Z,63.41
2019-03-25T11:50:00.484Z,63.22
2019-03-25T11:51:00.816Z,63.12
2019-03-25T11:52:00.544Z,63.41
2019-03-25T11:53:00.659Z,63.51
2019-03-25T11:54:00.664Z,63.70
2019-03-25T11:55:00.725Z,63.70
2019-03-25T11:56:00.677Z,63.70
2019-03-25T11:57:00.703Z,63.70
2019-03-25T11:58:00.734Z,63.70
2019-03-25T11:59:02.906Z,63.70
2019-03-25T12:00:00.843Z,63.41
2019-03-25T12:01:00.822Z,63.02
2019-03-25T12:02:00.899Z,62.93
2019-03-25T12:03:01.037Z,62.84
2019-03-25T12:04:00.963Z,63.32
2019-03-25T12:05:00.959Z,63.51
2019-03-25T12:06:01.020Z,63.79
2019-03-25T12:07:01.052Z,63.99
2019-03-25T12:08:01.102Z,63.60
2019-03-25T12:09:01.068Z,63.22
2019-03-25T12:10:01.445Z,62.84
2019-03-25T12:11:01.129Z,63.51
2019-03-25T12:12:01.163Z,63.60
2019-03-25T12:13:01.239Z,64.47
2019-03-25T12:14:01.277Z,64.18
2019-03-25T12:15:01.743Z,63.89
2019-03-25T12:16:01.654Z,64.09
2019-03-25T12:17:01.313Z,64.09
2019-03-25T12:18:01.409Z,63.89
2019-03-25T12:19:01.431Z,63.22
2019-03-25T12:20:01.418Z,63.70
2019-03-25T12:21:01.444Z,63.51
2019-03-25T12:22:01.550Z,64.09
2019-03-25T12:23:01.966Z,64.28
2019-03-25T12:24:01.586Z,64.09
2019-03-25T12:25:01.719Z,63.51
2019-03-25T12:26:01.647Z,63.41
2019-03-25T12:27:01.720Z,63.79
2019-03-25T12:28:01.659Z,63.60
2019-03-25T12:29:01.686Z,63.22
2019-03-25T12:30:01.803Z,63.70
2019-03-25T12:31:01.794Z,63.51
2019-03-25T12:32:01.774Z,63.12
2019-03-25T12:33:04.325Z,62.74
2019-03-25T12:35:01.921Z,63.51
2019-03-25T12:36:02.363Z,62.64
2019-03-25T12:37:02.057Z,62.84
2019-03-25T12:38:02.022Z,62.93
2019-03-25T12:39:02.043Z,63.02
2019-03-25T12:40:02.044Z,62.84
2019-03-25T12:41:02.100Z,62.74
2019-03-25T12:42:02.137Z,62.74
2019-03-25T12:43:02.473Z,62.55
2019-03-25T12:44:02.144Z,62.64
2019-03-25T12:45:02.249Z,63.22
2019-03-25T12:46:02.350Z,63.02
2019-03-25T12:47:02.252Z,63.12
2019-03-25T12:48:02.263Z,62.93
2019-03-25T12:49:02.348Z,63.12
2019-03-25T12:50:02.386Z,62.55
2019-03-25T12:51:02.426Z,62.74
2019-03-25T12:52:02.394Z,62.93
2019-03-25T12:53:02.478Z,63.02
2019-03-25T12:54:02.456Z,63.79
2019-03-25T12:55:02.482Z,63.79
2019-03-25T12:56:02.863Z,63.51
2019-03-25T12:57:02.551Z,63.70
2019-03-25T12:58:02.574Z,63.51
2019-03-25T12:59:02.661Z,63.79
2019-03-25T13:00:02.687Z,63.60
2019-03-25T13:01:02.682Z,63.41
2019-03-25T13:02:03.059Z,63.41
2019-03-25T13:03:02.796Z,63.51
2019-03-25T13:04:02.784Z,63.70
2019-03-25T13:05:02.801Z,63.70
2019-03-25T13:06:02.834Z,63.79
2019-03-25T13:07:02.876Z,63.51
2019-03-25T13:08:03.305Z,63.70
2019-03-25T13:09:02.921Z,63.70
2019-03-25T13:10:03.007Z,63.79
2019-03-25T13:11:02.989Z,63.60
2019-03-25T13:12:03.024Z,63.60
2019-03-25T13:13:03.128Z,63.83
2019-03-25T13:14:03.426Z,63.83
2019-03-25T13:15:03.164Z,63.83
2019-03-25T13:16:03.192Z,63.79
2019-03-25T13:17:03.222Z,63.70
2019-03-25T13:18:03.250Z,63.64
2019-03-25T13:19:03.282Z,63.64